createdAt,value
2022-10-18T00:00:02.676Z,14.98
2022-10-18T00:00:35.963Z,14.88
2022-10-18T00:01:29.201Z,14.72
2022-10-18T00:02:02.434Z,14.63
2022-10-18T00:02:35.761Z,14.54
2022-10-18T00:03:09.251Z,14.45
2022-10-18T00:04:21.078Z,14.27
2022-10-18T00:04:54.478Z,14.19
2022-10-18T00:05:27.914Z,14.12
2022-10-18T00:06:01.154Z,14.06
2022-10-18T00:06:34.274Z,13.98
2022-10-18T00:07:07.324Z,13.92
2022-10-18T00:07:40.694Z,13.86
2022-10-18T00:08:13.807Z,13.80
2022-10-18T00:08:47.007Z,13.74
2022-10-18T00:09:20.142Z,13.69
2022-10-18T00:09:53.310Z,13.64
2022-10-18T00:10:26.437Z,13.58
2022-10-18T00:10:59.488Z,13.53
2022-10-18T00:11:32.871Z,13.48
2022-10-18T00:12:06.203Z,13.43
2022-10-18T00:12:39.506Z,13.38
2022-10-18T00:13:13.140Z,13.34
2022-10-18T00:13:46.316Z,13.29
2022-10-18T00:14:19.867Z,13.24
2022-10-18T00:14:53.092Z,13.20
2022-10-18T00:15:26.117Z,13.15
2022-10-18T00:16:01.686Z,13.11
2022-10-18T00:16:35.233Z,13.07
2022-10-18T00:17:08.391Z,13.03
2022-10-18T00:17:41.491Z,12.99
2022-10-18T00:18:14.562Z,12.96
2022-10-18T00:18:48.710Z,12.93
2022-10-18T00:19:25.841Z,12.89
2022-10-18T00:20:01.976Z,12.86
2022-10-18T00:20:35.206Z,12.91
2022-10-18T00:21:11.554Z,13.07
2022-10-18T00:22:22.800Z,13.67
2022-10-18T00:22:55.997Z,13.98
2022-10-18T00:23:30.145Z,14.26
2022-10-18T00:24:03.489Z,14.51
2022-10-18T00:24:36.641Z,14.74
2022-10-18T00:25:10.422Z,14.96
2022-10-18T00:25:43.543Z,15.16
2022-10-18T00:26:18.093Z,15.34
2022-10-18T00:26:51.311Z,15.50
2022-10-18T00:27:24.360Z,15.64
2022-10-18T00:27:57.707Z,15.75
2022-10-18T00:28:31.308Z,15.85
2022-10-18T00:29:05.528Z,15.95
2022-10-18T00:29:38.601Z,16.04
2022-10-18T00:30:11.793Z,16.08
2022-10-18T00:30:44.923Z,16.16
2022-10-18T00:31:19.364Z,16.25
2022-10-18T00:31:52.575Z,16.33
2022-10-18T00:32:26.378Z,16.41
2022-10-18T00:32:59.700Z,16.48
2022-10-18T00:33:32.842Z,16.55
2022-10-18T00:34:07.531Z,16.62
2022-10-18T00:34:40.632Z,16.71
2022-10-18T00:35:14.057Z,16.79
2022-10-18T00:35:47.269Z,16.88
2022-10-18T00:36:20.993Z,16.97
2022-10-18T00:36:55.377Z,17.04
2022-10-18T00:37:28.448Z,17.11
2022-10-18T00:38:01.529Z,17.17
2022-10-18T00:38:34.732Z,17.25
2022-10-18T00:39:08.619Z,17.31
2022-10-18T00:39:42.219Z,17.38
2022-10-18T00:40:15.466Z,17.41
2022-10-18T00:40:48.648Z,17.44
2022-10-18T00:41:23.202Z,17.45
2022-10-18T00:41:56.396Z,17.45
2022-10-18T00:42:31.713Z,17.47
2022-10-18T00:43:04.983Z,17.50
2022-10-18T00:43:57.055Z,17.53
2022-10-18T00:44:30.155Z,17.57
2022-10-18T00:45:20.612Z,17.61
2022-10-18T00:45:53.822Z,17.64
2022-10-18T00:46:28.756Z,17.67
2022-10-18T00:47:05.284Z,17.69
2022-10-18T00:47:38.733Z,17.65
2022-10-18T00:48:12.590Z,17.55
2022-10-18T00:48:45.829Z,17.43
2022-10-18T00:49:23.830Z,17.26
2022-10-18T00:49:58.961Z,17.03
2022-10-18T00:50:33.952Z,16.82
2022-10-18T00:51:07.109Z,16.63
2022-10-18T00:51:44.513Z,16.48
2022-10-18T00:52:19.737Z,16.30
2022-10-18T00:52:54.523Z,16.14
2022-10-18T00:53:27.469Z,16.00
2022-10-18T00:54:00.630Z,15.86
2022-10-18T00:54:35.287Z,15.73
2022-10-18T00:55:09.067Z,15.60
2022-10-18T00:55:42.247Z,15.47
2022-10-18T00:56:15.657Z,15.36
2022-10-18T00:56:49.048Z,15.24
2022-10-18T00:57:22.129Z,15.14
2022-10-18T00:57:55.761Z,15.04
2022-10-18T00:58:29.318Z,14.93
2022-10-18T00:59:02.743Z,14.85
2022-10-18T00:59:36.405Z,14.74
2022-10-18T01:00:10.375Z,14.66
2022-10-18T01:00:43.494Z,14.58
2022-10-18T01:01:16.922Z,14.52
2022-10-18T01:01:50.105Z,14.44
2022-10-18T01:02:24.181Z,14.37
2022-10-18T01:02:58.559Z,14.30
2022-10-18T01:03:31.807Z,14.23
2022-10-18T01:04:04.901Z,14.16
2022-10-18T01:04:37.949Z,14.09
2022-10-18T01:05:20.254Z,14.02
2022-10-18T01:05:53.476Z,13.94
2022-10-18T01:06:28.478Z,13.88
2022-10-18T01:07:07.453Z,13.82
2022-10-18T01:08:06.918Z,13.75
2022-10-18T01:08:40.573Z,13.65
2022-10-18T01:09:25.122Z,13.60
2022-10-18T01:09:58.977Z,13.53
2022-10-18T01:10:41.940Z,13.48
2022-10-18T01:11:53.873Z,13.41
2022-10-18T01:12:35.991Z,13.32
2022-10-18T01:13:19.883Z,13.26
2022-10-18T01:13:56.455Z,13.20
2022-10-18T01:14:36.019Z,13.15
2022-10-18T01:15:09.339Z,13.09
2022-10-18T01:16:02.341Z,13.06
2022-10-18T01:16:44.709Z,12.99
2022-10-18T01:17:25.247Z,12.94
2022-10-18T01:18:10.695Z,12.90
2022-10-18T01:18:55.816Z,12.84
2022-10-18T01:19:47.712Z,12.79
2022-10-18T01:20:23.492Z,12.73
2022-10-18T01:21:02.531Z,12.68
2022-10-18T01:21:36.055Z,12.64
2022-10-18T01:22:12.525Z,12.61
2022-10-18T01:22:50.300Z,12.57
2022-10-18T01:23:39.611Z,12.53
2022-10-18T01:24:12.707Z,12.48
2022-10-18T01:24:51.936Z,12.45
2022-10-18T01:25:42.150Z,12.42
2022-10-18T01:26:27.368Z,12.36
2022-10-18T01:27:19.259Z,12.32
2022-10-18T01:27:55.336Z,12.26
2022-10-18T01:28:55.884Z,12.23
2022-10-18T01:29:29.098Z,12.17
2022-10-18T01:30:20.945Z,12.14
2022-10-18T01:30:59.084Z,12.10
2022-10-18T01:31:53.455Z,12.06
2022-10-18T01:32:35.086Z,12.02
2022-10-18T01:33:16.859Z,11.99
2022-10-18T01:33:54.084Z,11.96
2022-10-18T01:34:28.631Z,11.93
2022-10-18T01:35:04.705Z,11.91
2022-10-18T01:35:40.275Z,11.87
2022-10-18T01:36:21.376Z,11.85
2022-10-18T01:36:56.284Z,11.81
2022-10-18T01:37:30.852Z,11.79
2022-10-18T01:38:06.977Z,11.76
2022-10-18T01:38:40.804Z,11.74
2022-10-18T01:39:16.722Z,11.71
2022-10-18T01:39:52.606Z,11.68
2022-10-18T01:40:26.606Z,11.66
2022-10-18T01:41:01.188Z,11.64
2022-10-18T01:41:35.707Z,11.62
2022-10-18T01:42:10.943Z,11.61
2022-10-18T01:42:46.018Z,11.58
2022-10-18T01:43:20.205Z,11.57
2022-10-18T01:43:56.980Z,11.54
2022-10-18T01:44:32.327Z,11.53
2022-10-18T01:45:08.072Z,11.51
2022-10-18T01:45:42.084Z,11.48
2022-10-18T01:46:18.251Z,11.47
2022-10-18T01:46:52.980Z,11.45
2022-10-18T01:47:27.287Z,11.43
2022-10-18T01:48:01.278Z,11.41
2022-10-18T01:48:38.343Z,11.45
2022-10-18T01:49:11.575Z,11.60
2022-10-18T01:49:44.904Z,11.85
2022-10-18T01:50:28.306Z,12.15
2022-10-18T01:51:01.449Z,12.57
2022-10-18T01:51:34.577Z,12.86
2022-10-18T01:52:09.628Z,13.14
2022-10-18T01:52:52.232Z,13.41
2022-10-18T01:53:30.507Z,13.69
2022-10-18T01:54:03.788Z,13.91
2022-10-18T01:54:39.430Z,14.08
2022-10-18T01:55:13.276Z,14.26
2022-10-18T01:55:51.528Z,14.42
2022-10-18T01:56:34.035Z,14.60
2022-10-18T01:57:15.824Z,14.80
2022-10-18T01:58:09.771Z,14.98
2022-10-18T01:58:55.015Z,15.16
2022-10-18T01:59:46.554Z,15.28
2022-10-18T02:00:24.200Z,15.38
2022-10-18T02:01:17.519Z,15.45
2022-10-18T02:02:08.563Z,15.54
2022-10-18T02:02:48.480Z,15.63
2022-10-18T02:03:22.794Z,15.70
2022-10-18T02:03:58.417Z,15.76
2022-10-18T02:04:42.328Z,15.83
2022-10-18T02:05:23.038Z,15.90
2022-10-18T02:06:04.448Z,15.97
2022-10-18T02:06:41.029Z,16.03
2022-10-18T02:07:34.302Z,16.09
2022-10-18T02:08:23.233Z,16.16
2022-10-18T02:08:57.120Z,16.22
2022-10-18T02:09:34.298Z,16.29
2022-10-18T02:10:12.565Z,16.35
2022-10-18T02:10:50.325Z,16.42
2022-10-18T02:11:23.709Z,16.49
2022-10-18T02:11:57.992Z,16.54
2022-10-18T02:12:32.863Z,16.59
2022-10-18T02:13:06.858Z,16.63
2022-10-18T02:13:52.303Z,16.66
2022-10-18T02:14:26.265Z,16.70
2022-10-18T02:15:01.066Z,16.74
2022-10-18T02:15:36.125Z,16.78
2022-10-18T02:16:27.890Z,16.82
2022-10-18T02:17:03.450Z,16.89
2022-10-18T02:17:37.479Z,16.94
2022-10-18T02:18:13.382Z,16.99
2022-10-18T02:18:52.114Z,17.03
2022-10-18T02:19:31.282Z,17.08
2022-10-18T02:20:06.137Z,17.12
2022-10-18T02:20:39.497Z,17.13
2022-10-18T02:21:14.582Z,17.14
2022-10-18T02:21:48.739Z,17.15
2022-10-18T02:22:22.844Z,17.16
2022-10-18T02:22:56.779Z,17.17
2022-10-18T02:23:31.028Z,17.17
2022-10-18T02:24:05.974Z,17.17
2022-10-18T02:24:40.805Z,17.17
2022-10-18T02:25:17.029Z,17.18
2022-10-18T02:25:50.760Z,17.18
2022-10-18T02:26:24.096Z,17.20
2022-10-18T02:26:57.276Z,17.22
2022-10-18T02:27:30.648Z,17.23
2022-10-18T02:28:04.735Z,17.25
2022-10-18T02:28:38.622Z,17.27
2022-10-18T02:29:11.819Z,17.27
2022-10-18T02:29:45.923Z,17.22
2022-10-18T02:30:19.964Z,17.12
2022-10-18T02:30:53.032Z,16.97
2022-10-18T02:31:36.540Z,16.75
2022-10-18T02:32:22.238Z,16.40
2022-10-18T02:33:14.190Z,16.11
2022-10-18T02:34:03.020Z,15.74
2022-10-18T02:34:41.935Z,15.45
2022-10-18T02:35:20.471Z,15.21
2022-10-18T02:35:57.281Z,15.00
2022-10-18T02:36:33.272Z,14.82
2022-10-18T02:37:06.446Z,14.65
2022-10-18T02:37:40.361Z,14.49
2022-10-18T02:38:15.783Z,14.35
2022-10-18T02:38:53.289Z,14.20
2022-10-18T02:39:38.012Z,14.05
2022-10-18T02:40:11.957Z,13.88
2022-10-18T02:40:44.948Z,13.76
2022-10-18T02:41:25.221Z,13.66
2022-10-18T02:41:59.026Z,13.55
2022-10-18T02:42:37.111Z,13.45
2022-10-18T02:43:10.124Z,13.36
2022-10-18T02:43:43.175Z,13.27
2022-10-18T02:44:16.460Z,13.19
2022-10-18T02:44:49.576Z,13.11
2022-10-18T02:45:23.153Z,13.03
2022-10-18T02:45:56.270Z,12.95
2022-10-18T02:46:29.299Z,12.88
2022-10-18T02:47:02.809Z,12.81
2022-10-18T02:47:35.925Z,12.74
2022-10-18T02:48:09.834Z,12.67
2022-10-18T02:48:42.962Z,12.61
2022-10-18T02:49:16.201Z,12.54
2022-10-18T02:49:49.314Z,12.48
2022-10-18T02:50:22.473Z,12.43
2022-10-18T02:50:55.577Z,12.38
2022-10-18T02:51:28.662Z,12.33
2022-10-18T02:52:01.804Z,12.27
2022-10-18T02:52:35.674Z,12.22
2022-10-18T02:53:08.909Z,12.16
2022-10-18T02:53:42.223Z,12.11
2022-10-18T02:54:15.290Z,12.06
2022-10-18T02:54:48.387Z,12.02
2022-10-18T02:55:21.683Z,11.97
2022-10-18T02:55:54.809Z,11.92
2022-10-18T02:56:27.977Z,11.89
2022-10-18T02:57:01.074Z,11.83
2022-10-18T02:57:34.531Z,11.79
2022-10-18T02:58:08.690Z,11.75
2022-10-18T02:58:41.950Z,11.71
2022-10-18T02:59:15.151Z,11.66
2022-10-18T02:59:48.546Z,11.63
2022-10-18T03:00:21.756Z,11.59
2022-10-18T03:00:55.453Z,11.56
2022-10-18T03:01:28.554Z,11.52
2022-10-18T03:02:01.653Z,11.48
2022-10-18T03:02:35.136Z,11.45
2022-10-18T03:03:08.413Z,11.42
2022-10-18T03:03:41.583Z,11.39
2022-10-18T03:04:15.087Z,11.36
2022-10-18T03:04:49.281Z,11.34
2022-10-18T03:05:22.661Z,11.37
2022-10-18T03:05:55.762Z,11.48
2022-10-18T03:06:29.115Z,11.72
2022-10-18T03:07:02.341Z,12.00
2022-10-18T03:07:35.577Z,12.31
2022-10-18T03:08:08.597Z,12.59
2022-10-18T03:08:41.903Z,12.85
2022-10-18T03:09:15.054Z,13.10
2022-10-18T03:09:48.114Z,13.31
2022-10-18T03:10:21.185Z,13.48
2022-10-18T03:10:54.337Z,13.65
2022-10-18T03:11:27.364Z,13.81
2022-10-18T03:12:00.395Z,13.98
2022-10-18T03:12:33.634Z,14.12
2022-10-18T03:13:07.117Z,14.25
2022-10-18T03:13:40.506Z,14.37
2022-10-18T03:14:13.901Z,14.49
2022-10-18T03:14:46.851Z,14.59
2022-10-18T03:15:19.897Z,14.69
2022-10-18T03:15:53.037Z,14.76
2022-10-18T03:16:26.044Z,14.82
2022-10-18T03:16:59.124Z,14.84
2022-10-18T03:17:32.324Z,14.91
2022-10-18T03:18:06.397Z,14.99
2022-10-18T03:18:39.659Z,15.09
2022-10-18T03:19:12.838Z,15.17
2022-10-18T03:19:46.006Z,15.24
2022-10-18T03:20:20.160Z,15.30
2022-10-18T03:20:53.251Z,15.34
2022-10-18T03:21:26.609Z,15.36
2022-10-18T03:21:59.877Z,15.39
2022-10-18T03:22:33.027Z,15.40
2022-10-18T03:23:07.378Z,15.41
2022-10-18T03:23:42.418Z,15.42
2022-10-18T03:24:15.538Z,15.45
2022-10-18T03:24:48.587Z,15.42
2022-10-18T03:25:21.668Z,15.42
2022-10-18T03:25:54.739Z,15.39
2022-10-18T03:26:27.879Z,15.29
2022-10-18T03:27:01.122Z,15.15
2022-10-18T03:27:34.510Z,15.01
2022-10-18T03:28:08.797Z,14.84
2022-10-18T03:28:41.900Z,14.67
2022-10-18T03:29:15.243Z,14.51
2022-10-18T03:29:48.473Z,14.35
2022-10-18T03:30:21.461Z,14.20
2022-10-18T03:30:54.563Z,14.06
2022-10-18T03:31:27.760Z,13.92
2022-10-18T03:32:00.803Z,13.79
2022-10-18T03:32:34.140Z,13.66
2022-10-18T03:33:07.808Z,13.54
2022-10-18T03:33:40.924Z,13.44
2022-10-18T03:34:14.023Z,13.33
2022-10-18T03:34:47.042Z,13.24
2022-10-18T03:35:20.290Z,13.14
2022-10-18T03:35:53.394Z,13.06
2022-10-18T03:36:26.857Z,12.97
2022-10-18T03:37:02.155Z,12.89
2022-10-18T03:37:38.237Z,12.80
2022-10-18T03:38:11.308Z,12.73
2022-10-18T03:38:44.549Z,12.66
2022-10-18T03:39:17.670Z,12.59
2022-10-18T03:39:50.623Z,12.53
2022-10-18T03:40:23.806Z,12.48
2022-10-18T03:40:57.125Z,12.41
2022-10-18T03:41:30.174Z,12.35
2022-10-18T03:42:03.427Z,12.30
2022-10-18T03:42:36.676Z,12.25
2022-10-18T03:43:09.920Z,12.28
2022-10-18T03:43:43.209Z,12.41
2022-10-18T03:44:16.362Z,12.61
2022-10-18T03:44:49.550Z,12.86
2022-10-18T03:45:25.256Z,13.12
2022-10-18T03:45:59.717Z,13.38
2022-10-18T03:46:32.734Z,13.63
2022-10-18T03:47:05.829Z,13.85
2022-10-18T03:47:39.057Z,14.04
2022-10-18T03:48:12.169Z,14.23
2022-10-18T03:48:45.349Z,14.39
2022-10-18T03:49:18.748Z,14.53
2022-10-18T03:49:54.607Z,14.66
2022-10-18T03:50:30.247Z,14.78
2022-10-18T03:51:03.396Z,14.85
2022-10-18T03:51:36.458Z,14.91
2022-10-18T03:52:09.870Z,14.95
2022-10-18T03:52:42.926Z,14.99
2022-10-18T03:53:15.934Z,15.02
2022-10-18T03:53:48.967Z,15.06
2022-10-18T03:54:21.984Z,15.11
2022-10-18T03:54:55.129Z,15.14
2022-10-18T03:55:28.395Z,15.15
2022-10-18T03:56:01.375Z,15.16
2022-10-18T03:56:34.356Z,15.21
2022-10-18T03:57:07.505Z,15.26
2022-10-18T03:57:40.582Z,15.32
2022-10-18T03:58:13.637Z,15.36
2022-10-18T03:58:46.809Z,15.41
2022-10-18T03:59:20.009Z,15.38
2022-10-18T03:59:53.103Z,15.38
2022-10-18T04:00:26.362Z,15.30
2022-10-18T04:00:59.532Z,15.19
2022-10-18T04:01:32.898Z,15.07
2022-10-18T04:02:06.180Z,14.92
2022-10-18T04:02:39.297Z,14.75
2022-10-18T04:03:12.547Z,14.59
2022-10-18T04:03:45.668Z,14.43
2022-10-18T04:04:18.772Z,14.27
2022-10-18T04:04:52.665Z,14.13
2022-10-18T04:05:28.233Z,13.99
2022-10-18T04:06:03.771Z,13.86
2022-10-18T04:06:37.456Z,13.72
2022-10-18T04:07:10.975Z,13.61
2022-10-18T04:07:44.136Z,13.50
2022-10-18T04:08:17.415Z,13.40
2022-10-18T04:08:50.430Z,13.30
2022-10-18T04:09:23.622Z,13.21
2022-10-18T04:09:56.653Z,13.12
2022-10-18T04:10:29.799Z,13.01
2022-10-18T04:11:08.569Z,12.96
2022-10-18T04:11:41.802Z,13.05
2022-10-18T04:12:14.938Z,13.24
2022-10-18T04:12:47.976Z,13.49
2022-10-18T04:13:21.159Z,13.75
2022-10-18T04:13:54.401Z,14.01
2022-10-18T04:14:27.425Z,14.26
2022-10-18T04:15:00.438Z,14.51
2022-10-18T04:15:34.044Z,14.73
2022-10-18T04:16:07.626Z,14.95
2022-10-18T04:16:40.813Z,15.14
2022-10-18T04:17:14.132Z,15.32
2022-10-18T04:17:47.559Z,15.48
2022-10-18T04:18:20.819Z,15.60
2022-10-18T04:18:53.849Z,15.65
2022-10-18T04:19:28.062Z,15.68
2022-10-18T04:20:01.218Z,15.75
2022-10-18T04:20:34.358Z,15.83
2022-10-18T04:21:07.534Z,15.91
2022-10-18T04:21:40.634Z,15.99
2022-10-18T04:22:13.852Z,16.02
2022-10-18T04:22:50.666Z,16.06
2022-10-18T04:23:23.929Z,16.05
2022-10-18T04:23:57.073Z,15.95
2022-10-18T04:24:30.100Z,15.79
2022-10-18T04:25:03.561Z,15.60
2022-10-18T04:25:36.938Z,15.40
2022-10-18T04:26:10.101Z,15.19
2022-10-18T04:26:43.246Z,14.98
2022-10-18T04:27:16.338Z,14.79
2022-10-18T04:27:49.480Z,14.61
2022-10-18T04:28:22.632Z,14.42
2022-10-18T04:28:55.767Z,14.26
2022-10-18T04:29:28.778Z,14.11
2022-10-18T04:30:02.017Z,13.96
2022-10-18T04:30:35.398Z,13.83
2022-10-18T04:31:09.052Z,13.71
2022-10-18T04:31:42.175Z,13.59
2022-10-18T04:32:15.293Z,13.48
2022-10-18T04:32:48.399Z,13.36
2022-10-18T04:33:21.607Z,13.25
2022-10-18T04:33:54.957Z,13.15
2022-10-18T04:34:28.101Z,13.06
2022-10-18T04:35:05.254Z,12.97
2022-10-18T04:35:38.404Z,12.87
2022-10-18T04:36:11.731Z,12.79
2022-10-18T04:36:45.103Z,12.71
2022-10-18T04:37:18.382Z,12.64
2022-10-18T04:37:51.887Z,12.56
2022-10-18T04:38:25.094Z,12.50
2022-10-18T04:38:58.228Z,12.43
2022-10-18T04:39:31.636Z,12.37
2022-10-18T04:40:05.215Z,12.30
2022-10-18T04:40:38.598Z,12.25
2022-10-18T04:41:11.766Z,12.18
2022-10-18T04:41:44.905Z,12.12
2022-10-18T04:42:18.096Z,12.06
2022-10-18T04:42:51.181Z,12.02
2022-10-18T04:43:24.461Z,12.05
2022-10-18T04:43:57.690Z,12.19
2022-10-18T04:44:30.921Z,12.43
2022-10-18T04:45:04.409Z,12.72
2022-10-18T04:45:37.555Z,13.05
2022-10-18T04:46:10.690Z,13.34
2022-10-18T04:46:43.817Z,13.55
2022-10-18T04:47:17.715Z,13.75
2022-10-18T04:47:50.973Z,13.96
2022-10-18T04:48:24.151Z,14.18
2022-10-18T04:48:57.558Z,14.36
2022-10-18T04:49:30.728Z,14.48
2022-10-18T04:50:04.059Z,14.61
2022-10-18T04:50:37.363Z,14.70
2022-10-18T04:51:10.491Z,14.81
2022-10-18T04:51:43.791Z,14.94
2022-10-18T04:52:16.819Z,15.05
2022-10-18T04:53:27.886Z,15.31
2022-10-18T04:54:00.982Z,15.39
2022-10-18T04:54:34.172Z,15.46
2022-10-18T04:55:07.387Z,15.52
2022-10-18T04:55:40.537Z,15.58
2022-10-18T04:56:13.647Z,15.65
2022-10-18T04:56:46.790Z,15.70
2022-10-18T04:57:20.142Z,15.76
2022-10-18T04:57:53.380Z,15.83
2022-10-18T04:58:26.753Z,15.90
2022-10-18T04:59:00.148Z,15.97
2022-10-18T04:59:33.281Z,16.02
2022-10-18T05:00:06.954Z,16.06
2022-10-18T05:00:40.524Z,16.06
2022-10-18T05:01:13.735Z,16.06
2022-10-18T05:01:46.986Z,15.96
2022-10-18T05:02:20.140Z,15.81
2022-10-18T05:02:57.230Z,15.64
2022-10-18T05:03:30.388Z,15.42
2022-10-18T05:04:03.498Z,15.21
2022-10-18T05:04:36.528Z,14.94
2022-10-18T05:05:11.770Z,14.69
2022-10-18T05:06:03.128Z,14.50
2022-10-18T05:06:36.724Z,14.22
2022-10-18T05:07:10.038Z,14.01
2022-10-18T05:07:43.244Z,13.87
2022-10-18T05:08:16.613Z,13.74
2022-10-18T05:08:49.997Z,13.60
2022-10-18T05:09:25.044Z,13.48
2022-10-18T05:09:58.179Z,13.34
2022-10-18T05:10:31.329Z,13.21
2022-10-18T05:11:04.592Z,13.11
2022-10-18T05:11:37.920Z,13.01
2022-10-18T05:12:11.095Z,12.92
2022-10-18T05:12:44.152Z,12.82
2022-10-18T05:13:17.227Z,12.74
2022-10-18T05:13:51.013Z,12.65
2022-10-18T05:14:24.233Z,12.57
2022-10-18T05:14:57.339Z,12.49
2022-10-18T05:15:30.386Z,12.42
2022-10-18T05:16:03.720Z,12.36
2022-10-18T05:16:37.176Z,12.29
2022-10-18T05:17:10.410Z,12.23
2022-10-18T05:17:43.759Z,12.18
2022-10-18T05:18:17.134Z,12.11
2022-10-18T05:18:50.196Z,12.06
2022-10-18T05:19:23.161Z,12.01
2022-10-18T05:19:56.376Z,11.96
2022-10-18T05:20:29.439Z,11.91
2022-10-18T05:21:02.559Z,11.86
2022-10-18T05:21:35.688Z,11.83
2022-10-18T05:22:08.916Z,11.78
2022-10-18T05:22:42.206Z,11.75
2022-10-18T05:23:15.235Z,11.71
2022-10-18T05:23:48.349Z,11.66
2022-10-18T05:24:23.046Z,11.63
2022-10-18T05:24:58.677Z,11.58
2022-10-18T05:25:31.770Z,11.55
2022-10-18T05:26:06.296Z,11.51
2022-10-18T05:26:39.666Z,11.48
2022-10-18T05:27:12.752Z,11.47
2022-10-18T05:27:45.895Z,11.58
2022-10-18T05:28:40.777Z,11.78
2022-10-18T05:29:12.350Z,12.25
2022-10-18T05:29:45.640Z,12.56
2022-10-18T05:30:19.576Z,12.89
2022-10-18T05:30:52.768Z,13.21
2022-10-18T05:31:26.071Z,13.49
2022-10-18T05:31:59.313Z,13.77
2022-10-18T05:32:32.631Z,13.99
2022-10-18T05:33:06.522Z,14.21
2022-10-18T05:33:39.737Z,14.39
2022-10-18T05:34:12.933Z,14.56
2022-10-18T05:34:46.053Z,14.71
2022-10-18T05:35:19.069Z,14.85
2022-10-18T05:35:52.217Z,14.96
2022-10-18T05:36:26.441Z,15.07
2022-10-18T05:36:59.855Z,15.18
2022-10-18T05:37:33.044Z,15.27
2022-10-18T05:38:06.773Z,15.37
2022-10-18T05:38:43.219Z,15.44
2022-10-18T05:39:16.657Z,15.53
2022-10-18T05:39:49.709Z,15.61
2022-10-18T05:40:22.768Z,15.68
2022-10-18T05:40:55.916Z,15.73
2022-10-18T05:41:29.184Z,15.80
2022-10-18T05:42:02.819Z,15.87
2022-10-18T05:42:36.025Z,15.95
2022-10-18T05:43:09.040Z,16.02
2022-10-18T05:43:42.156Z,16.08
2022-10-18T05:44:15.429Z,16.14
2022-10-18T05:44:48.702Z,16.20
2022-10-18T05:45:21.899Z,16.26
2022-10-18T05:45:55.051Z,16.34
2022-10-18T05:46:28.267Z,16.42
2022-10-18T05:47:01.425Z,16.50
2022-10-18T05:48:09.736Z,16.65
2022-10-18T05:48:44.305Z,16.72
2022-10-18T05:49:17.554Z,16.78
2022-10-18T05:49:50.925Z,16.84
2022-10-18T05:50:24.254Z,16.87
2022-10-18T05:51:00.698Z,16.90
2022-10-18T05:51:33.820Z,16.93
2022-10-18T05:52:07.753Z,16.95
2022-10-18T05:52:40.952Z,16.98
2022-10-18T05:53:35.210Z,17.01
2022-10-18T05:54:07.770Z,17.05
2022-10-18T05:54:41.062Z,17.07
2022-10-18T05:55:14.341Z,17.10
2022-10-18T05:55:47.788Z,17.14
2022-10-18T05:56:21.128Z,17.16
2022-10-18T05:56:54.266Z,17.21
2022-10-18T05:57:27.420Z,17.26
2022-10-18T05:58:00.508Z,17.31
2022-10-18T05:58:34.462Z,17.35
2022-10-18T05:59:12.497Z,17.38
2022-10-18T05:59:46.453Z,17.41
2022-10-18T06:00:19.822Z,17.42
2022-10-18T06:00:53.014Z,17.44
2022-10-18T06:01:26.490Z,17.46
2022-10-18T06:01:59.587Z,17.46
2022-10-18T06:02:32.879Z,17.46
2022-10-18T06:03:06.184Z,17.43
2022-10-18T06:03:39.613Z,17.35
2022-10-18T06:04:12.828Z,17.22
2022-10-18T06:04:46.083Z,17.04
2022-10-18T06:05:19.283Z,16.85
2022-10-18T06:05:52.441Z,16.66
2022-10-18T06:06:25.655Z,16.48
2022-10-18T06:06:58.950Z,16.30
2022-10-18T06:07:32.236Z,16.12
2022-10-18T06:08:09.475Z,15.95
2022-10-18T06:08:44.531Z,15.78
2022-10-18T06:09:17.614Z,15.63
2022-10-18T06:09:50.806Z,15.49
2022-10-18T06:10:24.211Z,15.36
2022-10-18T06:10:57.432Z,15.24
2022-10-18T06:11:30.998Z,15.12
2022-10-18T06:12:05.374Z,15.01
2022-10-18T06:12:38.807Z,14.91
2022-10-18T06:13:12.065Z,14.81
2022-10-18T06:13:49.175Z,14.71
2022-10-18T06:14:22.421Z,14.63
2022-10-18T06:14:55.655Z,14.54
2022-10-18T06:15:28.763Z,14.47
2022-10-18T06:16:01.924Z,14.39
2022-10-18T06:16:34.963Z,14.32
2022-10-18T06:17:08.378Z,14.26
2022-10-18T06:17:41.532Z,14.20
2022-10-18T06:18:14.682Z,14.13
2022-10-18T06:18:49.359Z,14.08
2022-10-18T06:19:23.099Z,14.02
2022-10-18T06:19:56.276Z,13.97
2022-10-18T06:20:29.645Z,13.92
2022-10-18T06:21:03.108Z,13.87
2022-10-18T06:21:36.785Z,13.83
2022-10-18T06:22:10.752Z,13.87
2022-10-18T06:22:44.064Z,13.99
2022-10-18T06:23:17.312Z,14.17
2022-10-18T06:23:55.172Z,14.39
2022-10-18T06:24:28.902Z,14.68
2022-10-18T06:25:02.043Z,14.93
2022-10-18T06:25:35.667Z,15.17
2022-10-18T06:26:11.154Z,15.41
2022-10-18T06:26:44.552Z,15.62
2022-10-18T06:27:17.618Z,15.83
2022-10-18T06:27:50.792Z,16.00
2022-10-18T06:28:23.959Z,16.16
2022-10-18T06:28:57.379Z,16.29
2022-10-18T06:29:30.573Z,16.41
2022-10-18T06:30:03.792Z,16.55
2022-10-18T06:30:37.732Z,16.69
2022-10-18T06:31:12.267Z,16.82
2022-10-18T06:31:45.156Z,16.95
2022-10-18T06:32:18.866Z,17.07
2022-10-18T06:32:52.063Z,17.14
2022-10-18T06:33:25.597Z,17.21
2022-10-18T06:33:58.913Z,17.18
2022-10-18T06:34:32.291Z,17.11
2022-10-18T06:35:05.563Z,16.99
2022-10-18T06:35:38.723Z,16.83
2022-10-18T06:36:13.371Z,16.68
2022-10-18T06:36:46.647Z,16.53
2022-10-18T06:37:19.735Z,16.38
2022-10-18T06:37:53.670Z,16.25
2022-10-18T06:38:27.619Z,16.12
2022-10-18T06:39:00.805Z,15.98
2022-10-18T06:39:34.324Z,15.87
2022-10-18T06:40:07.878Z,15.77
2022-10-18T06:40:40.951Z,15.67
2022-10-18T06:41:14.291Z,15.59
2022-10-18T06:41:47.378Z,15.52
2022-10-18T06:42:22.575Z,15.45
2022-10-18T06:43:00.580Z,15.38
2022-10-18T06:43:39.380Z,15.30
2022-10-18T06:44:15.297Z,15.24
2022-10-18T06:44:48.466Z,15.19
2022-10-18T06:45:21.564Z,15.13
2022-10-18T06:45:55.126Z,15.09
2022-10-18T06:46:28.222Z,15.10
2022-10-18T06:47:01.516Z,15.16
2022-10-18T06:47:34.717Z,15.29
2022-10-18T06:48:07.990Z,15.43
2022-10-18T06:48:41.268Z,15.59
2022-10-18T06:49:18.214Z,15.78
2022-10-18T06:49:52.493Z,16.03
2022-10-18T06:50:25.729Z,16.28
2022-10-18T06:50:59.595Z,16.53
2022-10-18T06:51:32.876Z,16.77
2022-10-18T06:52:07.519Z,16.98
2022-10-18T06:52:41.801Z,17.15
2022-10-18T06:53:14.889Z,17.32
2022-10-18T06:54:05.838Z,17.45
2022-10-18T06:54:41.406Z,17.65
2022-10-18T06:55:14.629Z,17.75
2022-10-18T06:55:47.906Z,17.82
2022-10-18T06:56:21.093Z,17.85
2022-10-18T06:56:56.340Z,17.84
2022-10-18T06:57:30.004Z,17.78
2022-10-18T06:58:03.232Z,17.70
2022-10-18T06:58:37.044Z,17.60
2022-10-18T06:59:10.432Z,17.47
2022-10-18T06:59:44.054Z,17.34
2022-10-18T07:00:17.565Z,17.22
2022-10-18T07:00:50.767Z,17.12
2022-10-18T07:01:24.051Z,17.03
2022-10-18T07:01:57.333Z,16.93
2022-10-18T07:02:30.949Z,16.82
2022-10-18T07:03:04.298Z,16.74
2022-10-18T07:03:37.839Z,16.67
2022-10-18T07:04:10.908Z,16.60
2022-10-18T07:04:44.208Z,16.54
2022-10-18T07:05:17.426Z,16.47
2022-10-18T07:05:51.205Z,16.42
2022-10-18T07:06:25.072Z,16.37
2022-10-18T07:06:58.568Z,16.32
2022-10-18T07:07:32.012Z,16.27
2022-10-18T07:08:05.303Z,16.23
2022-10-18T07:08:39.255Z,16.19
2022-10-18T07:09:12.921Z,16.17
2022-10-18T07:09:46.331Z,16.14
2022-10-18T07:10:19.563Z,16.11
2022-10-18T07:10:53.515Z,16.12
2022-10-18T07:11:27.334Z,16.20
2022-10-18T07:12:00.591Z,16.34
2022-10-18T07:12:34.438Z,16.54
2022-10-18T07:13:30.809Z,16.78
2022-10-18T07:14:03.275Z,17.18
2022-10-18T07:14:36.446Z,17.44
2022-10-18T07:15:09.859Z,17.69
2022-10-18T07:15:42.972Z,17.91
2022-10-18T07:16:18.728Z,18.10
2022-10-18T07:16:52.184Z,18.29
2022-10-18T07:17:26.263Z,18.49
2022-10-18T07:17:59.612Z,18.63
2022-10-18T07:18:34.180Z,18.67
2022-10-18T07:19:07.383Z,18.70
2022-10-18T07:19:40.521Z,18.67
2022-10-18T07:20:13.650Z,18.60
2022-10-18T07:20:46.666Z,18.50
2022-10-18T07:21:21.200Z,18.39
2022-10-18T07:21:54.468Z,18.25
2022-10-18T07:22:30.233Z,18.13
2022-10-18T07:23:03.677Z,18.01
2022-10-18T07:23:38.050Z,17.90
2022-10-18T07:24:11.042Z,17.79
2022-10-18T07:24:44.071Z,17.69
2022-10-18T07:25:17.219Z,17.60
2022-10-18T07:25:50.710Z,17.51
2022-10-18T07:26:29.432Z,17.43
2022-10-18T07:27:02.500Z,17.34
2022-10-18T07:27:38.511Z,17.27
2022-10-18T07:28:11.657Z,17.22
2022-10-18T07:28:46.344Z,17.16
2022-10-18T07:29:19.565Z,17.11
2022-10-18T07:29:52.733Z,17.07
2022-10-18T07:30:25.975Z,17.02